CEB821 RPLL-RPUV
Flight info
| Callsign | CEB821 |
|---|---|
| Flight time | 0h 38m |
| Altitude | 25000 |
| Route | TIMON2V TIMON W15 RAGAY W15A NGA |
| Aircraft | A320/M-SDE3FGHIRWY/LB1 |
Departure
| Time | 2026-04-15 09:34 |
|---|---|
| Airport | Ninoy Aquino International Airport (RPLL) |
Arrival
| Time | 2026-04-15 10:12 |
|---|---|
| Airport | Virac Airport (RPUV) |
| Time | Latitude | Longitude | Altitude | Speed | Heading |
|---|---|---|---|---|---|
| 2026-04-15 09:06 | 14.52285 | 121.00844 | 83 ft | 0 kts | 44° |
| 2026-04-15 09:20 | 14.52277 | 121.00834 | 84 ft | 2 kts | 61° |
| 2026-04-15 09:20 | 14.52271 | 121.00819 | 84 ft | 2 kts | 77° |
| 2026-04-15 09:21 | 14.52269 | 121.00804 | 84 ft | 2 kts | 85° |
| 2026-04-15 09:21 | 14.52265 | 121.00790 | 84 ft | 2 kts | 48° |
| 2026-04-15 09:21 | 14.52253 | 121.00781 | 84 ft | 2 kts | 9° |
| 2026-04-15 09:21 | 14.52238 | 121.00783 | 84 ft | 2 kts | 329° |
| 2026-04-15 09:22 | 14.52229 | 121.00790 | 84 ft | 0 kts | 307° |
| 2026-04-15 09:22 | 14.52229 | 121.00792 | 84 ft | 0 kts | 308° |
| 2026-04-15 09:26 | 14.52232 | 121.00787 | 84 ft | 2 kts | 314° |
| 2026-04-15 09:26 | 14.52254 | 121.00764 | 84 ft | 5 kts | 315° |
| 2026-04-15 09:26 | 14.52283 | 121.00734 | 84 ft | 6 kts | 315° |
| 2026-04-15 09:26 | 14.52317 | 121.00700 | 84 ft | 7 kts | 315° |
| 2026-04-15 09:27 | 14.52354 | 121.00661 | 84 ft | 8 kts | 315° |
| 2026-04-15 09:27 | 14.52396 | 121.00617 | 84 ft | 8 kts | 315° |
| 2026-04-15 09:27 | 14.52442 | 121.00570 | 84 ft | 9 kts | 315° |
| 2026-04-15 09:27 | 14.52484 | 121.00526 | 84 ft | 7 kts | 313° |
| 2026-04-15 09:28 | 14.52491 | 121.00475 | 84 ft | 6 kts | 246° |
| 2026-04-15 09:28 | 14.52464 | 121.00443 | 84 ft | 5 kts | 224° |
| 2026-04-15 09:28 | 14.52432 | 121.00411 | 84 ft | 6 kts | 225° |
| 2026-04-15 09:28 | 14.52390 | 121.00391 | 84 ft | 7 kts | 177° |
| 2026-04-15 09:29 | 14.52348 | 121.00422 | 84 ft | 7 kts | 134° |
| 2026-04-15 09:29 | 14.52310 | 121.00462 | 84 ft | 4 kts | 135° |
| 2026-04-15 09:29 | 14.52304 | 121.00467 | 84 ft | 0 kts | 135° |
| 2026-04-15 09:33 | 14.52304 | 121.00468 | 84 ft | 1 kts | 135° |
| 2026-04-15 09:33 | 14.52152 | 121.00623 | 84 ft | 67 kts | 135° |
| 2026-04-15 09:33 | 14.51654 | 121.01139 | 84 ft | 131 kts | 134° |
| 2026-04-15 09:34 | 14.50938 | 121.01887 | 384 ft | 152 kts | 133° |
| 2026-04-15 09:34 | 14.50182 | 121.02684 | 960 ft | 156 kts | 131° |
| 2026-04-15 09:34 | 14.49427 | 121.03494 | 1577 ft | 159 kts | 132° |
| 2026-04-15 09:34 | 14.48655 | 121.04304 | 2017 ft | 164 kts | 132° |
| 2026-04-15 09:35 | 14.47806 | 121.05182 | 2285 ft | 178 kts | 132° |
| 2026-04-15 09:35 | 14.46888 | 121.06142 | 2584 ft | 193 kts | 132° |
| 2026-04-15 09:35 | 14.45923 | 121.07152 | 2871 ft | 208 kts | 133° |
| 2026-04-15 09:35 | 14.44857 | 121.08264 | 3183 ft | 223 kts | 132° |
| 2026-04-15 09:36 | 14.43704 | 121.09464 | 3422 ft | 245 kts | 132° |
| 2026-04-15 09:36 | 14.42473 | 121.10752 | 3798 ft | 261 kts | 132° |
| 2026-04-15 09:36 | 14.41202 | 121.12183 | 4292 ft | 271 kts | 122° |
| 2026-04-15 09:36 | 14.40323 | 121.13890 | 4979 ft | 273 kts | 111° |
| 2026-04-15 09:37 | 14.39592 | 121.15717 | 5648 ft | 278 kts | 109° |
| 2026-04-15 09:37 | 14.38852 | 121.17593 | 6294 ft | 284 kts | 110° |
| 2026-04-15 09:37 | 14.38113 | 121.19408 | 6985 ft | 288 kts | 110° |
| 2026-04-15 09:37 | 14.37281 | 121.21386 | 7647 ft | 295 kts | 111° |
| 2026-04-15 09:38 | 14.36447 | 121.23319 | 8412 ft | 296 kts | 111° |
| 2026-04-15 09:38 | 14.35595 | 121.25279 | 9084 ft | 301 kts | 112° |
| 2026-04-15 09:38 | 14.34737 | 121.27248 | 9721 ft | 307 kts | 112° |
| 2026-04-15 09:38 | 14.33846 | 121.29286 | 10338 ft | 313 kts | 112° |
| 2026-04-15 09:39 | 14.32928 | 121.31381 | 10687 ft | 329 kts | 113° |
| 2026-04-15 09:39 | 14.32286 | 121.32844 | 10887 ft | 340 kts | 113° |
| 2026-04-15 09:40 | 14.30425 | 121.37080 | 11422 ft | 369 kts | 114° |
| 2026-04-15 09:40 | 14.29337 | 121.39564 | 11947 ft | 376 kts | 114° |
| 2026-04-15 09:41 | 14.28288 | 121.41952 | 12572 ft | 379 kts | 114° |
| 2026-04-15 09:41 | 14.27190 | 121.44446 | 13216 ft | 382 kts | 114° |
| 2026-04-15 09:41 | 14.26066 | 121.46995 | 13860 ft | 385 kts | 115° |
| 2026-04-15 09:41 | 14.24942 | 121.49543 | 14493 ft | 388 kts | 115° |
| 2026-04-15 09:42 | 14.23816 | 121.52095 | 15119 ft | 391 kts | 115° |
| 2026-04-15 09:42 | 14.22674 | 121.54680 | 15739 ft | 393 kts | 115° |
| 2026-04-15 09:42 | 14.21532 | 121.57267 | 16350 ft | 396 kts | 115° |
| 2026-04-15 09:42 | 14.20370 | 121.59895 | 16962 ft | 398 kts | 115° |
| 2026-04-15 09:43 | 14.19204 | 121.62535 | 17562 ft | 401 kts | 115° |
| 2026-04-15 09:43 | 14.18046 | 121.65153 | 18150 ft | 403 kts | 116° |
| 2026-04-15 09:43 | 14.16825 | 121.67923 | 18751 ft | 406 kts | 116° |
| 2026-04-15 09:43 | 14.15644 | 121.70606 | 19322 ft | 408 kts | 116° |
| 2026-04-15 09:44 | 14.14451 | 121.73309 | 19887 ft | 410 kts | 116° |
| 2026-04-15 09:44 | 14.13268 | 121.75986 | 20440 ft | 412 kts | 116° |
| 2026-04-15 09:44 | 14.12064 | 121.78702 | 20986 ft | 415 kts | 116° |
| 2026-04-15 09:44 | 14.10875 | 121.81384 | 21597 ft | 415 kts | 116° |
| 2026-04-15 09:45 | 14.09672 | 121.84096 | 22351 ft | 411 kts | 116° |
| 2026-04-15 09:45 | 14.08485 | 121.86768 | 23088 ft | 407 kts | 116° |
| 2026-04-15 09:45 | 14.07309 | 121.89417 | 23736 ft | 406 kts | 116° |
| 2026-04-15 09:45 | 14.06120 | 121.92095 | 24271 ft | 408 kts | 116° |
| 2026-04-15 09:46 | 14.04908 | 121.94733 | 24692 ft | 410 kts | 118° |
| 2026-04-15 09:46 | 14.03613 | 121.97365 | 24826 ft | 411 kts | 118° |
| 2026-04-15 09:46 | 14.02310 | 121.99981 | 24830 ft | 411 kts | 119° |
| 2026-04-15 09:46 | 14.00986 | 122.02628 | 24834 ft | 411 kts | 119° |
| 2026-04-15 09:47 | 13.99667 | 122.05262 | 24837 ft | 411 kts | 119° |
| 2026-04-15 09:47 | 13.98358 | 122.07877 | 24838 ft | 411 kts | 119° |
| 2026-04-15 09:47 | 13.97039 | 122.10508 | 24838 ft | 411 kts | 119° |
| 2026-04-15 09:47 | 13.95725 | 122.13129 | 24838 ft | 411 kts | 119° |
| 2026-04-15 09:48 | 13.94403 | 122.15768 | 24838 ft | 411 kts | 119° |
| 2026-04-15 09:48 | 13.93088 | 122.18394 | 24838 ft | 411 kts | 119° |
| 2026-04-15 09:48 | 13.91766 | 122.21034 | 24838 ft | 411 kts | 118° |
| 2026-04-15 09:48 | 13.90453 | 122.23667 | 24839 ft | 411 kts | 118° |
| 2026-04-15 09:49 | 13.89142 | 122.26284 | 24839 ft | 411 kts | 119° |
| 2026-04-15 09:49 | 13.87825 | 122.28890 | 24839 ft | 411 kts | 119° |
| 2026-04-15 09:49 | 13.86494 | 122.31524 | 24838 ft | 411 kts | 119° |
| 2026-04-15 09:49 | 13.85183 | 122.34124 | 24838 ft | 411 kts | 119° |
| 2026-04-15 09:50 | 13.83857 | 122.36762 | 24838 ft | 411 kts | 119° |
| 2026-04-15 09:50 | 13.82549 | 122.39363 | 24838 ft | 411 kts | 119° |
| 2026-04-15 09:50 | 13.81221 | 122.42007 | 24838 ft | 411 kts | 119° |
| 2026-04-15 09:50 | 13.79909 | 122.44617 | 24838 ft | 411 kts | 119° |
| 2026-04-15 09:51 | 13.78609 | 122.47205 | 24838 ft | 411 kts | 119° |
| 2026-04-15 09:51 | 13.77279 | 122.49852 | 24838 ft | 411 kts | 119° |
| 2026-04-15 09:51 | 13.75957 | 122.52481 | 24838 ft | 411 kts | 119° |
| 2026-04-15 09:51 | 13.74644 | 122.55098 | 24838 ft | 411 kts | 118° |
| 2026-04-15 09:52 | 13.73481 | 122.57765 | 24839 ft | 412 kts | 112° |
| 2026-04-15 09:52 | 13.72556 | 122.60571 | 24839 ft | 414 kts | 107° |
| 2026-04-15 09:52 | 13.71870 | 122.63431 | 24839 ft | 414 kts | 104° |
| 2026-04-15 09:52 | 13.71243 | 122.66360 | 24430 ft | 419 kts | 104° |
| 2026-04-15 09:53 | 13.70616 | 122.69356 | 23571 ft | 426 kts | 104° |
| 2026-04-15 09:53 | 13.69987 | 122.72353 | 22782 ft | 429 kts | 104° |
| 2026-04-15 09:53 | 13.69350 | 122.75359 | 21964 ft | 432 kts | 104° |
| 2026-04-15 09:53 | 13.68709 | 122.78370 | 21192 ft | 433 kts | 104° |
| 2026-04-15 09:54 | 13.68056 | 122.81419 | 20553 ft | 430 kts | 104° |
| 2026-04-15 09:54 | 13.67421 | 122.84371 | 20061 ft | 424 kts | 104° |
| 2026-04-15 09:54 | 13.66793 | 122.87315 | 19553 ft | 419 kts | 103° |
| 2026-04-15 09:54 | 13.66169 | 122.90231 | 19013 ft | 416 kts | 103° |
| 2026-04-15 09:55 | 13.65531 | 122.93203 | 18471 ft | 412 kts | 103° |
| 2026-04-15 09:55 | 13.64943 | 122.95936 | 17979 ft | 408 kts | 103° |
| 2026-04-15 09:55 | 13.64327 | 122.98792 | 17468 ft | 405 kts | 103° |
| 2026-04-15 09:55 | 13.63719 | 123.01611 | 16971 ft | 401 kts | 103° |
| 2026-04-15 09:56 | 13.63119 | 123.04386 | 16480 ft | 398 kts | 103° |
| 2026-04-15 09:56 | 13.62520 | 123.07160 | 15990 ft | 395 kts | 103° |
| 2026-04-15 09:56 | 13.61332 | 123.12654 | 15023 ft | 388 kts | 103° |
| 2026-04-15 09:57 | 13.60745 | 123.15362 | 14549 ft | 385 kts | 102° |
| 2026-04-15 09:57 | 13.60170 | 123.18015 | 14085 ft | 382 kts | 102° |
| 2026-04-15 09:57 | 13.59589 | 123.20698 | 13616 ft | 379 kts | 102° |
| 2026-04-15 09:57 | 13.59016 | 123.23341 | 13154 ft | 376 kts | 102° |
| 2026-04-15 09:58 | 13.58496 | 123.25978 | 12697 ft | 373 kts | 98° |
| 2026-04-15 09:58 | 13.58152 | 123.28626 | 12249 ft | 370 kts | 94° |
| 2026-04-15 09:58 | 13.57969 | 123.31254 | 11810 ft | 367 kts | 92° |
| 2026-04-15 09:58 | 13.57823 | 123.33849 | 11387 ft | 363 kts | 91° |
| 2026-04-15 09:59 | 13.57678 | 123.36440 | 10968 ft | 360 kts | 91° |
| 2026-04-15 09:59 | 13.57532 | 123.39010 | 10557 ft | 357 kts | 91° |
| 2026-04-15 09:59 | 13.57388 | 123.41543 | 10260 ft | 349 kts | 91° |
| 2026-04-15 09:59 | 13.57248 | 123.43967 | 10203 ft | 333 kts | 91° |
| 2026-04-15 10:00 | 13.57111 | 123.46341 | 10129 ft | 318 kts | 91° |
| 2026-04-15 10:00 | 13.56982 | 123.48556 | 10064 ft | 304 kts | 91° |
| 2026-04-15 10:00 | 13.56859 | 123.50682 | 9909 ft | 297 kts | 91° |
| 2026-04-15 10:00 | 13.56738 | 123.52793 | 9568 ft | 295 kts | 91° |
| 2026-04-15 10:01 | 13.56618 | 123.54896 | 9248 ft | 293 kts | 91° |
| 2026-04-15 10:01 | 13.56498 | 123.56979 | 8942 ft | 290 kts | 91° |
| 2026-04-15 10:01 | 13.56419 | 123.58411 | 8710 ft | 289 kts | 91° |
| 2026-04-15 10:01 | 13.56299 | 123.60480 | 8393 ft | 287 kts | 91° |
| 2026-04-15 10:02 | 13.56178 | 123.62526 | 8094 ft | 284 kts | 91° |
| 2026-04-15 10:02 | 13.56060 | 123.64544 | 7795 ft | 282 kts | 91° |
| 2026-04-15 10:02 | 13.55940 | 123.66560 | 7504 ft | 279 kts | 91° |
| 2026-04-15 10:02 | 13.55825 | 123.68567 | 7196 ft | 277 kts | 92° |
| 2026-04-15 10:03 | 13.55708 | 123.70538 | 6909 ft | 274 kts | 91° |
| 2026-04-15 10:03 | 13.55592 | 123.72476 | 6632 ft | 271 kts | 91° |
| 2026-04-15 10:03 | 13.55480 | 123.74419 | 6327 ft | 270 kts | 92° |
| 2026-04-15 10:03 | 13.55366 | 123.76356 | 6030 ft | 268 kts | 91° |
| 2026-04-15 10:04 | 13.55251 | 123.78269 | 5749 ft | 266 kts | 91° |
| 2026-04-15 10:04 | 13.55137 | 123.80177 | 5478 ft | 263 kts | 91° |
| 2026-04-15 10:04 | 13.55028 | 123.82045 | 5195 ft | 261 kts | 91° |
| 2026-04-15 10:04 | 13.54918 | 123.83919 | 4899 ft | 260 kts | 91° |
| 2026-04-15 10:05 | 13.54806 | 123.85786 | 4616 ft | 259 kts | 91° |
| 2026-04-15 10:05 | 13.54696 | 123.87643 | 4333 ft | 257 kts | 91° |
| 2026-04-15 10:05 | 13.54587 | 123.89487 | 4045 ft | 256 kts | 92° |
| 2026-04-15 10:05 | 13.54476 | 123.91343 | 3758 ft | 255 kts | 92° |
| 2026-04-15 10:06 | 13.54367 | 123.93155 | 3482 ft | 254 kts | 92° |
| 2026-04-15 10:06 | 13.54257 | 123.94984 | 3202 ft | 252 kts | 92° |
| 2026-04-15 10:06 | 13.54189 | 123.96131 | 3024 ft | 252 kts | 92° |
| 2026-04-15 10:06 | 13.54081 | 123.97912 | 2842 ft | 245 kts | 92° |
| 2026-04-15 10:07 | 13.54024 | 123.98845 | 2834 ft | 237 kts | 92° |
| 2026-04-15 10:07 | 13.53922 | 124.00506 | 2812 ft | 223 kts | 91° |
| 2026-04-15 10:07 | 13.53828 | 124.02049 | 2771 ft | 210 kts | 91° |
| 2026-04-15 10:07 | 13.53739 | 124.03501 | 2839 ft | 196 kts | 91° |
| 2026-04-15 10:08 | 13.53656 | 124.04868 | 2664 ft | 181 kts | 91° |
| 2026-04-15 10:08 | 13.53581 | 124.06088 | 2560 ft | 163 kts | 91° |
| 2026-04-15 10:08 | 13.53512 | 124.07237 | 2458 ft | 153 kts | 91° |
| 2026-04-15 10:08 | 13.53448 | 124.08294 | 2352 ft | 145 kts | 91° |
| 2026-04-15 10:09 | 13.53387 | 124.09327 | 2131 ft | 145 kts | 90° |
| 2026-04-15 10:09 | 13.53325 | 124.10375 | 1931 ft | 146 kts | 91° |
| 2026-04-15 10:09 | 13.53263 | 124.11423 | 1734 ft | 145 kts | 91° |
| 2026-04-15 10:09 | 13.53304 | 124.12448 | 1549 ft | 142 kts | 70° |
| 2026-04-15 10:10 | 13.53720 | 124.13360 | 1441 ft | 140 kts | 58° |
| 2026-04-15 10:10 | 13.54208 | 124.14227 | 1261 ft | 141 kts | 58° |
| 2026-04-15 10:10 | 13.54705 | 124.15105 | 1139 ft | 140 kts | 56° |
| 2026-04-15 10:10 | 13.55211 | 124.15958 | 1011 ft | 138 kts | 58° |
| 2026-04-15 10:11 | 13.55677 | 124.16819 | 891 ft | 139 kts | 58° |
| 2026-04-15 10:11 | 13.56174 | 124.17679 | 715 ft | 138 kts | 58° |
| 2026-04-15 10:11 | 13.56642 | 124.18540 | 521 ft | 137 kts | 60° |
| 2026-04-15 10:11 | 13.57108 | 124.19408 | 305 ft | 137 kts | 59° |
| 2026-04-15 10:12 | 13.57566 | 124.20252 | 163 ft | 125 kts | 59° |
| 2026-04-15 10:12 | 13.57847 | 124.20758 | 162 ft | 37 kts | 60° |
| 2026-04-15 10:12 | 13.57924 | 124.20897 | 162 ft | 14 kts | 60° |
| 2026-04-15 10:12 | 13.57973 | 124.20988 | 162 ft | 14 kts | 60° |
| 2026-04-15 10:13 | 13.58025 | 124.21080 | 162 ft | 14 kts | 60° |
| 2026-04-15 10:13 | 13.58064 | 124.21153 | 162 ft | 8 kts | 60° |
| 2026-04-15 10:13 | 13.58074 | 124.21190 | 162 ft | 5 kts | 108° |
| 2026-04-15 10:13 | 13.58047 | 124.21214 | 162 ft | 5 kts | 149° |
| 2026-04-15 10:14 | 13.58017 | 124.21220 | 162 ft | 4 kts | 208° |
| 2026-04-15 10:14 | 13.57997 | 124.21189 | 162 ft | 4 kts | 240° |
| 2026-04-15 10:14 | 13.57982 | 124.21171 | 162 ft | 3 kts | 202° |
| 2026-04-15 10:14 | 13.57962 | 124.21171 | 162 ft | 3 kts | 177° |
| 2026-04-15 10:15 | 13.57945 | 124.21172 | 162 ft | 1 kts | 178° |
| 2026-04-15 10:15 | 13.57944 | 124.21172 | 162 ft | 0 kts | 178° |